createdAt,value
2019-05-07T00:00:32.779Z,68.33
2019-05-07T00:01:33.926Z,68.64
2019-05-07T00:02:32.159Z,67.92
2019-05-07T00:03:32.763Z,69.15
2019-05-07T00:04:33.037Z,68.95
2019-05-07T00:05:33.001Z,69.05
2019-05-07T00:06:32.598Z,69.15
2019-05-07T00:07:31.939Z,68.88
2019-05-07T00:08:32.163Z,69.15
2019-05-07T00:09:32.301Z,68.23
2019-05-07T00:10:32.943Z,69.46
2019-05-07T00:11:32.990Z,69.39
2019-05-07T00:12:32.324Z,69.09
2019-05-07T00:13:30.576Z,69.15
2019-05-07T00:14:32.003Z,68.26
2019-05-07T00:15:32.575Z,69.29
2019-05-07T00:16:32.536Z,70.49
2019-05-07T00:17:32.282Z,70.52
2019-05-07T00:18:32.154Z,69.80
2019-05-07T00:19:32.408Z,70.01
2019-05-07T00:20:32.581Z,70.52
2019-05-07T00:21:32.548Z,71.24
2019-05-07T00:22:32.586Z,70.73
2019-05-07T00:23:32.491Z,71.34
2019-05-07T00:24:32.527Z,71.04
2019-05-07T00:25:32.668Z,71.66
2019-05-07T00:26:32.056Z,71.14
2019-05-07T00:27:32.059Z,71.86
2019-05-07T00:28:32.476Z,72.17
2019-05-07T00:29:32.168Z,72.27
2019-05-07T00:30:30.391Z,72.51
2019-05-07T00:31:32.498Z,72.99
2019-05-07T00:32:32.721Z,72.92
2019-05-07T00:33:32.340Z,73.19
2019-05-07T00:34:32.668Z,73.44
2019-05-07T00:35:32.301Z,72.89
2019-05-07T00:36:32.388Z,73.95
2019-05-07T00:37:32.250Z,74.67
2019-05-07T00:38:31.935Z,74.77
2019-05-07T00:39:32.666Z,75.18
2019-05-07T00:40:33.102Z,74.98
2019-05-07T00:41:31.882Z,75.25
2019-05-07T00:42:32.149Z,75.18
2019-05-07T00:43:32.259Z,75.29
2019-05-07T00:44:30.259Z,75.70
2019-05-07T00:45:32.495Z,75.08
2019-05-07T00:46:32.135Z,76.01
2019-05-07T00:47:30.199Z,75.70
2019-05-07T00:48:32.543Z,75.49
2019-05-07T00:49:30.208Z,76.21
2019-05-07T00:50:30.222Z,76.31
2019-05-07T00:51:30.158Z,76.73
2019-05-07T00:52:30.155Z,76.52
2019-05-07T00:53:30.166Z,77.14
2019-05-07T00:54:32.389Z,76.83
2019-05-07T00:55:30.118Z,77.14
2019-05-07T00:56:30.120Z,77.03
2019-05-07T00:57:32.240Z,77.48
2019-05-07T00:58:32.014Z,77.28
2019-05-07T00:59:32.081Z,77.34
2019-05-07T01:00:30.102Z,77.69
2019-05-07T01:01:32.221Z,77.55
2019-05-07T01:02:32.201Z,79.13
2019-05-07T01:03:30.033Z,78.61
2019-05-07T01:04:30.263Z,78.72
2019-05-07T01:05:30.015Z,79.03
2019-05-07T01:06:30.094Z,79.23
2019-05-07T01:07:32.326Z,79.95
2019-05-07T01:08:32.084Z,79.95
2019-05-07T01:09:32.246Z,79.13
2019-05-07T01:10:29.981Z,79.23
2019-05-07T01:11:29.952Z,79.13
2019-05-07T01:12:29.933Z,79.13
2019-05-07T01:13:32.197Z,79.13
2019-05-07T01:14:29.915Z,79.23
2019-05-07T01:15:32.152Z,79.54
2019-05-07T01:16:29.888Z,80.09
2019-05-07T01:17:29.888Z,79.44
2019-05-07T01:18:29.861Z,79.95
2019-05-07T01:19:29.864Z,80.61
2019-05-07T01:20:29.858Z,81.02
2019-05-07T01:21:32.254Z,81.12
2019-05-07T01:22:29.815Z,81.09
2019-05-07T01:23:32.111Z,80.88
2019-05-07T01:24:32.064Z,80.88
2019-05-07T01:25:29.835Z,80.91
2019-05-07T01:26:29.780Z,80.40
2019-05-07T01:27:31.984Z,80.61
2019-05-07T01:28:29.754Z,81.33
2019-05-07T01:29:29.754Z,81.43
2019-05-07T01:30:29.730Z,80.71
2019-05-07T01:31:29.862Z,80.09
2019-05-07T01:32:29.768Z,80.91
2019-05-07T01:33:29.722Z,81.12
2019-05-07T01:34:29.686Z,81.53
2019-05-07T01:35:29.680Z,81.12
2019-05-07T01:36:31.778Z,81.02
2019-05-07T01:37:29.655Z,80.61
2019-05-07T01:38:29.669Z,80.71
2019-05-07T01:39:29.666Z,81.02
2019-05-07T01:40:29.625Z,81.26
2019-05-07T01:41:29.609Z,81.33
2019-05-07T01:42:29.624Z,81.23
2019-05-07T01:43:31.962Z,81.02
2019-05-07T01:44:29.620Z,81.02
2019-05-07T01:45:43.241Z,80.81
2019-05-07T01:46:32.436Z,81.12
2019-05-07T01:47:29.561Z,81.02
2019-05-07T01:48:29.549Z,81.02
2019-05-07T01:49:29.546Z,81.23
2019-05-07T01:50:29.532Z,81.23
2019-05-07T01:51:29.533Z,80.81
2019-05-07T01:52:29.503Z,79.99
2019-05-07T01:53:29.494Z,80.19
2019-05-07T01:54:29.473Z,80.19
2019-05-07T01:55:29.474Z,80.54
2019-05-07T01:56:29.458Z,80.19
2019-05-07T01:57:29.439Z,80.65
2019-05-07T01:58:29.435Z,80.71
2019-05-07T01:59:29.413Z,80.71
2019-05-07T02:00:29.430Z,80.81
2019-05-07T02:01:29.407Z,79.88
2019-05-07T02:02:29.397Z,80.51
2019-05-07T02:03:29.374Z,80.85
2019-05-07T02:04:29.374Z,81.43
2019-05-07T02:05:32.496Z,81.26
2019-05-07T02:06:29.344Z,81.33
2019-05-07T02:07:29.334Z,81.53
2019-05-07T02:08:29.312Z,81.02
2019-05-07T02:09:29.307Z,81.53
2019-05-07T02:10:29.315Z,82.09
2019-05-07T02:11:29.321Z,81.57
2019-05-07T02:12:29.281Z,81.67
2019-05-07T02:13:29.273Z,81.77
2019-05-07T02:14:29.274Z,81.57
2019-05-07T02:15:29.305Z,81.98
2019-05-07T02:16:29.287Z,82.50
2019-05-07T02:17:29.246Z,82.35
2019-05-07T02:18:29.229Z,82.40
2019-05-07T02:19:29.222Z,81.88
2019-05-07T02:20:29.192Z,81.98
2019-05-07T02:21:29.189Z,81.84
2019-05-07T02:22:29.173Z,81.88
2019-05-07T02:23:29.195Z,82.50
2019-05-07T02:24:29.146Z,82.29
2019-05-07T02:25:29.138Z,82.60
2019-05-07T02:26:29.127Z,82.60
2019-05-07T02:27:29.128Z,81.98
2019-05-07T02:28:29.117Z,81.84
2019-05-07T02:29:29.117Z,81.26
2019-05-07T02:30:29.083Z,81.16
2019-05-07T02:31:29.070Z,81.67
2019-05-07T02:32:29.064Z,81.84
2019-05-07T02:33:29.058Z,81.57
2019-05-07T02:34:29.038Z,81.16
2019-05-07T02:35:29.305Z,81.12
2019-05-07T02:36:29.032Z,81.47
2019-05-07T02:37:40.904Z,81.57
2019-05-07T02:38:30.032Z,82.19
2019-05-07T02:39:29.017Z,81.57
2019-05-07T02:40:29.150Z,81.57
2019-05-07T02:41:29.191Z,81.57
2019-05-07T02:42:28.954Z,81.16
2019-05-07T02:43:28.952Z,80.75
2019-05-07T02:44:28.932Z,79.93
2019-05-07T02:45:28.935Z,80.95
2019-05-07T02:46:31.936Z,81.16
2019-05-07T02:47:32.855Z,81.26
2019-05-07T02:48:28.892Z,80.95
2019-05-07T02:49:28.880Z,81.26
2019-05-07T02:50:28.891Z,80.65
2019-05-07T02:51:28.873Z,81.05
2019-05-07T02:52:28.872Z,81.05
2019-05-07T02:53:28.887Z,81.37
2019-05-07T02:54:28.841Z,80.65
2019-05-07T02:55:28.809Z,80.95
2019-05-07T02:56:28.807Z,81.05
2019-05-07T02:57:28.791Z,81.37
2019-05-07T02:58:28.812Z,81.26
2019-05-07T02:59:28.786Z,81.51
2019-05-07T03:00:28.772Z,81.77
2019-05-07T03:01:28.749Z,81.57
2019-05-07T03:02:28.749Z,81.61
2019-05-07T03:03:28.843Z,81.47
2019-05-07T03:04:28.710Z,81.26
2019-05-07T03:05:28.704Z,80.95
2019-05-07T03:06:28.684Z,80.75
2019-05-07T03:07:28.693Z,80.85
2019-05-07T03:08:28.692Z,81.20
2019-05-07T03:09:28.695Z,81.05
2019-05-07T03:10:28.677Z,80.65
2019-05-07T03:11:28.639Z,80.85
2019-05-07T03:12:28.623Z,80.65
2019-05-07T03:13:28.631Z,80.54
2019-05-07T03:14:28.629Z,80.65
2019-05-07T03:15:28.630Z,80.95
2019-05-07T03:16:40.060Z,80.85
2019-05-07T03:17:29.576Z,81.05
2019-05-07T03:18:28.595Z,81.26
2019-05-07T03:19:28.558Z,81.26
2019-05-07T03:20:28.547Z,81.81
2019-05-07T03:21:28.537Z,81.88
2019-05-07T03:22:28.529Z,81.88
2019-05-07T03:23:28.513Z,81.77
2019-05-07T03:24:28.505Z,81.88
2019-05-07T03:25:28.485Z,81.88
2019-05-07T03:26:28.522Z,81.77
2019-05-07T03:27:28.462Z,82.09
2019-05-07T03:28:28.507Z,82.50
2019-05-07T03:29:28.447Z,82.33
2019-05-07T03:30:28.437Z,82.50
2019-05-07T03:31:28.430Z,82.19
2019-05-07T03:32:28.782Z,82.40
2019-05-07T03:33:28.417Z,82.50
2019-05-07T03:34:28.620Z,82.50
2019-05-07T03:35:28.579Z,82.40
2019-05-07T03:36:28.371Z,82.70
2019-05-07T03:37:32.084Z,82.60
2019-05-07T03:38:29.369Z,82.60
2019-05-07T03:39:28.332Z,82.70
2019-05-07T03:40:28.359Z,82.60
2019-05-07T03:41:28.323Z,82.91
2019-05-07T03:42:28.337Z,83.32
2019-05-07T03:43:28.292Z,83.36
2019-05-07T03:44:28.282Z,82.81
2019-05-07T03:45:28.290Z,83.22
2019-05-07T03:46:28.261Z,83.32
2019-05-07T03:47:28.249Z,83.42
2019-05-07T03:48:28.253Z,83.53
2019-05-07T03:49:28.230Z,83.22
2019-05-07T03:50:28.208Z,83.12
2019-05-07T03:51:28.212Z,83.12
2019-05-07T03:52:28.200Z,82.81
2019-05-07T03:53:28.219Z,82.91
2019-05-07T03:54:28.168Z,82.87
2019-05-07T03:55:28.177Z,82.81
2019-05-07T03:56:28.185Z,82.25
2019-05-07T03:57:28.135Z,82.05
2019-05-07T03:58:28.186Z,81.88
2019-05-07T03:59:28.121Z,81.84
2019-05-07T04:00:28.160Z,81.95
2019-05-07T04:01:28.195Z,81.84
2019-05-07T04:02:28.075Z,81.95
2019-05-07T04:03:28.103Z,81.95
2019-05-07T04:04:28.071Z,81.43
2019-05-07T04:05:28.048Z,81.53
2019-05-07T04:06:28.068Z,81.95
2019-05-07T04:07:28.051Z,82.35
2019-05-07T04:08:28.016Z,82.15
2019-05-07T04:09:28.005Z,82.15
2019-05-07T04:10:28.011Z,82.05
2019-05-07T04:11:28.640Z,81.74
2019-05-07T04:12:27.983Z,82.46
2019-05-07T04:13:27.986Z,81.74
2019-05-07T04:14:27.947Z,81.02
2019-05-07T04:15:27.941Z,81.12
2019-05-07T04:16:27.924Z,81.23
2019-05-07T04:17:27.935Z,81.19
2019-05-07T04:18:27.924Z,81.23
2019-05-07T04:19:27.931Z,81.19
2019-05-07T04:20:27.895Z,80.98
2019-05-07T04:21:27.888Z,80.57
2019-05-07T04:22:29.104Z,80.36
2019-05-07T04:23:27.911Z,79.95
2019-05-07T04:24:27.859Z,79.64
2019-05-07T04:25:27.829Z,79.85
2019-05-07T04:26:27.836Z,80.16
2019-05-07T04:27:27.817Z,79.95
2019-05-07T04:28:27.817Z,79.75
2019-05-07T04:29:27.845Z,79.44
2019-05-07T04:30:27.803Z,79.03
2019-05-07T04:31:27.771Z,79.23
2019-05-07T04:32:27.760Z,79.44
2019-05-07T04:33:27.736Z,78.72
2019-05-07T04:34:27.739Z,78.51
2019-05-07T04:35:28.040Z,78.30
2019-05-07T04:36:27.717Z,78.30
2019-05-07T04:37:27.708Z,77.75
2019-05-07T04:38:27.711Z,78.00
2019-05-07T04:39:27.714Z,78.17
2019-05-07T04:40:27.709Z,78.06
2019-05-07T04:41:27.674Z,76.73
2019-05-07T04:42:27.644Z,76.90
2019-05-07T04:43:27.660Z,76.73
2019-05-07T04:44:27.685Z,76.83
2019-05-07T04:45:27.638Z,76.69
2019-05-07T04:46:27.617Z,76.59
2019-05-07T04:47:38.575Z,76.48
2019-05-07T04:48:28.585Z,76.59
2019-05-07T04:49:27.566Z,76.79
2019-05-07T04:50:39.287Z,75.56
2019-05-07T04:51:28.561Z,75.56
2019-05-07T04:52:27.566Z,75.15
2019-05-07T04:53:27.590Z,74.63
2019-05-07T04:54:27.529Z,75.04
2019-05-07T04:55:27.508Z,74.91
2019-05-07T04:56:27.514Z,74.91
2019-05-07T04:57:27.551Z,75.52
2019-05-07T04:58:27.546Z,75.42
2019-05-07T04:59:27.488Z,75.01
2019-05-07T05:00:27.458Z,75.21
2019-05-07T05:01:27.443Z,74.91
2019-05-07T05:02:27.632Z,74.60
2019-05-07T05:03:27.417Z,74.60
2019-05-07T05:04:31.528Z,74.80
2019-05-07T05:05:28.427Z,73.88
2019-05-07T05:06:27.392Z,73.02
2019-05-07T05:07:27.509Z,73.13
2019-05-07T05:08:27.397Z,73.95
2019-05-07T05:09:27.404Z,73.02
2019-05-07T05:10:27.367Z,73.02
2019-05-07T05:11:27.337Z,72.72
2019-05-07T05:12:27.313Z,72.92
2019-05-07T05:13:27.309Z,72.58
2019-05-07T05:14:27.296Z,72.38
2019-05-07T05:15:27.325Z,71.04
2019-05-07T05:16:27.268Z,71.14
2019-05-07T05:17:27.266Z,71.35
2019-05-07T05:18:27.305Z,70.84
2019-05-07T05:19:27.242Z,70.12
2019-05-07T05:20:27.251Z,70.32
2019-05-07T05:21:27.265Z,70.70
2019-05-07T05:22:27.251Z,70.50
2019-05-07T05:23:27.207Z,70.73
2019-05-07T05:24:27.183Z,70.84
2019-05-07T05:25:27.172Z,71.04
2019-05-07T05:26:27.188Z,70.73
2019-05-07T05:27:29.962Z,70.29
2019-05-07T05:28:27.140Z,70.29
2019-05-07T05:29:27.131Z,69.37
2019-05-07T05:30:27.117Z,68.82
2019-05-07T05:31:27.120Z,69.26
2019-05-07T05:32:27.254Z,69.06
2019-05-07T05:33:27.123Z,69.02
2019-05-07T05:34:27.084Z,69.74
2019-05-07T05:35:27.088Z,68.99
2019-05-07T05:36:27.057Z,68.62
2019-05-07T05:37:27.049Z,68.59
2019-05-07T05:38:27.038Z,68.38
2019-05-07T05:39:27.033Z,68.17
2019-05-07T05:40:27.105Z,68.51
2019-05-07T05:41:27.018Z,68.82
2019-05-07T05:42:26.997Z,69.23
2019-05-07T05:43:26.976Z,68.82
2019-05-07T05:44:26.966Z,69.02
2019-05-07T05:45:27.060Z,69.13
2019-05-07T05:46:26.942Z,68.82
2019-05-07T05:47:26.928Z,68.54
2019-05-07T05:48:26.932Z,68.85
2019-05-07T05:49:26.902Z,68.41
2019-05-07T05:50:26.954Z,67.18
2019-05-07T05:51:26.889Z,67.18
2019-05-07T05:52:26.881Z,67.05
2019-05-07T05:53:26.868Z,66.94
2019-05-07T05:54:26.838Z,67.11
2019-05-07T05:55:26.855Z,66.37
2019-05-07T05:56:26.852Z,65.04
2019-05-07T05:57:26.842Z,64.94
2019-05-07T05:58:26.832Z,64.50
2019-05-07T05:59:37.121Z,64.36
2019-05-07T06:00:27.788Z,63.82
2019-05-07T06:01:26.775Z,62.90
2019-05-07T06:02:26.822Z,62.73
2019-05-07T06:03:27.061Z,63.24
2019-05-07T06:04:26.779Z,63.57
2019-05-07T06:05:26.739Z,63.34
2019-05-07T06:06:26.717Z,62.73
2019-05-07T06:07:26.715Z,62.83
2019-05-07T06:08:26.696Z,62.80
2019-05-07T06:09:26.703Z,62.16
2019-05-07T06:10:26.688Z,61.21
2019-05-07T06:11:26.663Z,59.37
2019-05-07T06:12:26.689Z,59.44
2019-05-07T06:13:26.650Z,59.41
2019-05-07T06:14:26.728Z,59.95
2019-05-07T06:15:26.617Z,59.64
2019-05-07T06:16:26.602Z,57.75
2019-05-07T06:17:26.591Z,55.33
2019-05-07T06:18:26.585Z,54.59
2019-05-07T06:19:26.587Z,53.59
2019-05-07T06:20:26.607Z,53.50
2019-05-07T06:21:26.554Z,52.96
2019-05-07T06:22:26.582Z,53.24
2019-05-07T06:23:26.662Z,51.89
2019-05-07T06:24:26.579Z,51.03
2019-05-07T06:25:26.560Z,48.77
2019-05-07T06:26:26.673Z,48.42
2019-05-07T06:27:26.493Z,47.81
2019-05-07T06:28:26.499Z,47.46
2019-05-07T06:29:26.469Z,46.69
2019-05-07T06:30:26.451Z,45.04
2019-05-07T06:31:26.433Z,43.29
2019-05-07T06:32:26.436Z,41.63
2019-05-07T06:33:26.465Z,41.08
2019-05-07T06:34:26.408Z,40.12
2019-05-07T06:35:26.415Z,38.45
2019-05-07T06:36:26.380Z,37.78
2019-05-07T06:37:26.365Z,40.90
2019-05-07T06:38:26.374Z,40.86
2019-05-07T06:39:26.356Z,39.42
2019-05-07T06:40:29.301Z,41.03
2019-05-07T06:41:26.328Z,45.32
2019-05-07T06:42:26.312Z,47.64
2019-05-07T06:43:26.326Z,49.46
2019-05-07T06:44:26.302Z,50.77
2019-05-07T06:45:26.298Z,50.48
2019-05-07T06:46:26.318Z,51.45
2019-05-07T06:47:26.264Z,51.68
2019-05-07T06:48:38.090Z,48.27
2019-05-07T06:49:27.323Z,42.69
2019-05-07T06:50:26.242Z,39.73
2019-05-07T06:51:26.255Z,37.16
2019-05-07T06:52:26.217Z,33.62
2019-05-07T06:53:26.202Z,30.43
2019-05-07T06:54:26.189Z,28.36
2019-05-07T06:55:26.189Z,27.20
2019-05-07T06:56:26.199Z,24.38
2019-05-07T06:57:26.405Z,25.61
2019-05-07T06:58:26.168Z,26.50
2019-05-07T06:59:26.137Z,24.95
2019-05-07T07:00:26.121Z,23.24
2019-05-07T07:01:26.117Z,22.41
2019-05-07T07:02:26.116Z,21.60
2019-05-07T07:03:26.280Z,22.52
2019-05-07T07:04:26.083Z,21.89
2019-05-07T07:05:26.067Z,21.77
2019-05-07T07:06:26.054Z,21.56
2019-05-07T07:07:31.027Z,22.39
2019-05-07T07:08:27.080Z,21.56
2019-05-07T07:09:26.019Z,19.95
2019-05-07T07:10:26.009Z,18.95
2019-05-07T07:11:26.018Z,19.24
2019-05-07T07:12:26.268Z,18.95
2019-05-07T07:13:25.984Z,19.67
2019-05-07T07:14:26.029Z,19.15
2019-05-07T07:15:25.959Z,17.76
2019-05-07T07:16:25.955Z,17.85
2019-05-07T07:17:25.923Z,17.45
2019-05-07T07:18:25.924Z,17.22
2019-05-07T07:19:25.920Z,17.57
2019-05-07T07:20:25.932Z,17.24
2019-05-07T07:21:25.881Z,15.84
2019-05-07T07:22:25.878Z,15.94
2019-05-07T07:23:25.864Z,16.22
2019-05-07T07:24:25.863Z,15.41
2019-05-07T07:25:25.861Z,15.50
2019-05-07T07:26:25.862Z,15.42
2019-05-07T07:27:25.825Z,15.41
2019-05-07T07:28:25.816Z,14.90
2019-05-07T07:29:25.801Z,15.00
2019-05-07T07:30:25.800Z,14.61
2019-05-07T07:31:26.322Z,16.35
2019-05-07T07:32:26.271Z,18.08
2019-05-07T07:33:25.800Z,18.73
2019-05-07T07:34:25.820Z,18.50
2019-05-07T07:35:25.739Z,17.86
2019-05-07T07:36:25.775Z,15.45
2019-05-07T07:37:25.719Z,14.96
2019-05-07T07:38:25.747Z,17.42
2019-05-07T07:39:25.783Z,18.55
2019-05-07T07:40:25.679Z,19.80
2019-05-07T07:41:25.671Z,21.20
2019-05-07T07:42:25.667Z,23.72
2019-05-07T07:43:25.644Z,19.97
2019-05-07T07:44:25.694Z,17.40
2019-05-07T07:45:25.626Z,15.36
2019-05-07T07:46:25.612Z,15.12
2019-05-07T07:47:25.618Z,13.13
2019-05-07T07:48:28.233Z,14.20
2019-05-07T07:49:25.592Z,13.31
2019-05-07T07:50:25.590Z,12.92
2019-05-07T07:51:37.750Z,13.40
2019-05-07T07:52:26.569Z,13.58
2019-05-07T07:53:25.557Z,14.12
2019-05-07T07:54:25.540Z,14.89
2019-05-07T07:55:25.517Z,18.26
2019-05-07T07:56:25.565Z,18.87
2019-05-07T07:57:25.499Z,19.31
2019-05-07T07:58:25.530Z,21.20
2019-05-07T07:59:25.492Z,19.89
2019-05-07T08:00:26.172Z,21.65
2019-05-07T08:01:25.454Z,25.53
2019-05-07T08:02:25.503Z,26.50
2019-05-07T08:03:25.437Z,27.96
2019-05-07T08:04:25.430Z,28.42
2019-05-07T08:05:25.425Z,21.47
2019-05-07T08:06:25.397Z,17.95
2019-05-07T08:07:25.394Z,14.89
2019-05-07T08:08:25.420Z,13.26
2019-05-07T08:09:25.906Z,12.54
2019-05-07T08:10:25.364Z,11.93
2019-05-07T08:11:25.346Z,11.52
2019-05-07T08:12:25.338Z,11.31
2019-05-07T08:13:25.328Z,10.52
2019-05-07T08:14:25.333Z,10.61
2019-05-07T08:15:25.331Z,10.10
2019-05-07T08:16:25.305Z,9.80
2019-05-07T08:17:25.274Z,9.50
2019-05-07T08:18:25.312Z,8.62
2019-05-07T08:19:25.278Z,10.30
2019-05-07T08:20:25.258Z,11.64
2019-05-07T08:21:25.234Z,13.70
2019-05-07T08:22:25.226Z,13.78
2019-05-07T08:23:25.248Z,17.33
2019-05-07T08:24:25.217Z,19.40
2019-05-07T08:25:25.191Z,20.94
2019-05-07T08:26:25.211Z,21.88
2019-05-07T08:27:25.191Z,20.79
2019-05-07T08:28:25.163Z,16.04
2019-05-07T08:29:25.153Z,14.27
2019-05-07T08:30:25.128Z,12.15
2019-05-07T08:31:25.131Z,10.93
2019-05-07T08:32:25.159Z,10.61
2019-05-07T08:33:25.104Z,10.31
2019-05-07T08:34:25.107Z,10.94
2019-05-07T08:35:25.082Z,11.95
2019-05-07T08:36:25.067Z,11.24
2019-05-07T08:37:25.065Z,11.01
2019-05-07T08:38:25.084Z,11.02
2019-05-07T08:39:25.329Z,11.66
2019-05-07T08:40:25.047Z,13.60
2019-05-07T08:41:25.017Z,15.25
2019-05-07T08:42:32.103Z,16.04
2019-05-07T08:43:25.000Z,18.49
2019-05-07T08:44:25.017Z,20.24
2019-05-07T08:45:25.076Z,20.70
2019-05-07T08:46:24.977Z,22.22
2019-05-07T08:47:24.951Z,22.62
2019-05-07T08:48:25.705Z,22.15
2019-05-07T08:49:35.715Z,23.58
2019-05-07T08:50:26.030Z,23.84
2019-05-07T08:51:24.968Z,22.38
2019-05-07T08:52:26.114Z,18.42
2019-05-07T08:53:25.147Z,13.87
2019-05-07T08:54:24.893Z,14.15
2019-05-07T08:55:24.869Z,14.39
2019-05-07T08:56:24.897Z,16.44
2019-05-07T08:57:24.867Z,18.40
2019-05-07T08:58:24.841Z,19.66
2019-05-07T08:59:24.865Z,22.02
2019-05-07T09:00:24.818Z,22.87
2019-05-07T09:01:24.821Z,24.91
2019-05-07T09:02:24.841Z,24.32
2019-05-07T09:03:25.069Z,22.86
2019-05-07T09:04:24.782Z,20.13
2019-05-07T09:05:24.754Z,16.03
2019-05-07T09:06:24.758Z,13.58
2019-05-07T09:07:24.726Z,11.96
2019-05-07T09:08:24.769Z,11.45
2019-05-07T09:09:24.725Z,11.44
2019-05-07T09:10:24.696Z,10.64
2019-05-07T09:11:24.696Z,9.45
2019-05-07T09:12:24.688Z,9.45
2019-05-07T09:13:24.670Z,9.34
2019-05-07T09:14:26.279Z,8.55
2019-05-07T09:15:24.653Z,8.73
2019-05-07T09:16:24.640Z,7.75
2019-05-07T09:17:24.626Z,7.74
2019-05-07T09:18:24.629Z,7.95
2019-05-07T09:19:24.598Z,10.93
2019-05-07T09:20:24.623Z,11.19
2019-05-07T09:21:24.586Z,13.91
2019-05-07T09:22:24.581Z,14.34
2019-05-07T09:23:24.600Z,16.68
2019-05-07T09:24:24.582Z,17.72
2019-05-07T09:25:24.533Z,19.57
2019-05-07T09:26:24.546Z,19.60
2019-05-07T09:27:24.535Z,20.34
2019-05-07T09:28:24.567Z,21.09
2019-05-07T09:29:24.504Z,21.70
2019-05-07T09:30:24.512Z,20.64
2019-05-07T09:31:24.473Z,16.21
2019-05-07T09:32:24.533Z,14.56
2019-05-07T09:33:24.466Z,13.12
2019-05-07T09:34:24.448Z,11.99
2019-05-07T09:35:24.458Z,11.46
2019-05-07T09:36:24.417Z,11.39
2019-05-07T09:37:24.415Z,11.81
2019-05-07T09:38:24.443Z,11.45
2019-05-07T09:39:24.428Z,9.85
2019-05-07T09:40:24.384Z,9.34
2019-05-07T09:41:24.374Z,9.55
2019-05-07T09:42:24.408Z,11.46
2019-05-07T09:43:24.360Z,11.44
2019-05-07T09:44:24.350Z,10.63
2019-05-07T09:45:24.336Z,11.27
2019-05-07T09:46:24.308Z,13.41
2019-05-07T09:47:24.317Z,15.25
2019-05-07T09:48:24.300Z,17.39
2019-05-07T09:49:24.284Z,18.73
2019-05-07T09:50:24.325Z,19.16
2019-05-07T09:51:24.281Z,19.70
2019-05-07T09:52:24.263Z,21.45
2019-05-07T09:53:24.251Z,21.88
2019-05-07T09:54:24.234Z,22.40
2019-05-07T09:55:24.225Z,23.23
2019-05-07T09:56:24.262Z,23.07
2019-05-07T09:57:30.471Z,19.49
2019-05-07T09:58:35.665Z,15.32
2019-05-07T09:59:25.183Z,13.58
2019-05-07T10:00:24.195Z,12.06
2019-05-07T10:01:24.143Z,11.15
2019-05-07T10:02:24.175Z,10.83
2019-05-07T10:03:24.150Z,9.64
2019-05-07T10:04:24.144Z,7.89
2019-05-07T10:05:24.136Z,8.95
2019-05-07T10:06:24.098Z,7.97
2019-05-07T10:07:24.113Z,7.59
2019-05-07T10:08:24.105Z,8.37
2019-05-07T10:09:24.060Z,7.78
2019-05-07T10:10:24.059Z,9.06
2019-05-07T10:11:24.048Z,8.87
2019-05-07T10:12:24.050Z,9.25
2019-05-07T10:13:24.028Z,8.87
2019-05-07T10:14:24.060Z,8.87
2019-05-07T10:15:24.006Z,10.68
2019-05-07T10:16:24.012Z,11.60
2019-05-07T10:17:23.997Z,12.01
2019-05-07T10:18:23.969Z,13.00
2019-05-07T10:19:23.966Z,12.20
2019-05-07T10:20:23.977Z,13.12
2019-05-07T10:21:23.956Z,14.16
2019-05-07T10:22:23.947Z,15.30
2019-05-07T10:23:23.923Z,17.42
2019-05-07T10:24:23.908Z,17.85
2019-05-07T10:25:23.908Z,18.48
2019-05-07T10:26:23.923Z,19.21
2019-05-07T10:27:25.856Z,20.04
2019-05-07T10:28:23.878Z,21.37
2019-05-07T10:29:23.912Z,21.88
2019-05-07T10:30:23.884Z,22.20
2019-05-07T10:31:23.889Z,21.51
2019-05-07T10:32:23.859Z,22.03
2019-05-07T10:33:23.813Z,22.55
2019-05-07T10:34:23.814Z,23.47
2019-05-07T10:35:23.798Z,24.28
2019-05-07T10:36:23.786Z,23.99
2019-05-07T10:37:23.779Z,24.30
2019-05-07T10:38:23.795Z,24.00
2019-05-07T10:39:23.759Z,24.20
2019-05-07T10:40:23.746Z,23.97
2019-05-07T10:41:23.725Z,18.87
2019-05-07T10:42:23.721Z,16.07
2019-05-07T10:43:23.703Z,13.13
2019-05-07T10:44:23.712Z,11.80
2019-05-07T10:45:23.693Z,10.90
2019-05-07T10:46:23.678Z,11.74
2019-05-07T10:47:23.657Z,13.86
2019-05-07T10:48:23.661Z,13.11
2019-05-07T10:49:23.644Z,11.52
2019-05-07T10:50:35.418Z,11.32
2019-05-07T10:51:24.638Z,11.62
2019-05-07T10:52:23.635Z,11.08
2019-05-07T10:53:23.602Z,10.57
2019-05-07T10:54:23.611Z,10.91
2019-05-07T10:55:23.613Z,12.26
2019-05-07T10:56:23.607Z,13.95
2019-05-07T10:57:23.578Z,12.62
2019-05-07T10:58:23.547Z,11.32
2019-05-07T10:59:23.549Z,11.81
2019-05-07T11:00:23.554Z,13.75
2019-05-07T11:01:23.528Z,14.44
2019-05-07T11:02:23.557Z,13.94
2019-05-07T11:03:23.504Z,12.40
2019-05-07T11:04:23.493Z,10.79
2019-05-07T11:05:23.467Z,10.80
2019-05-07T11:06:23.459Z,10.99
2019-05-07T11:07:23.518Z,10.67
2019-05-07T11:08:25.676Z,10.08
2019-05-07T11:09:23.434Z,10.59
2019-05-07T11:10:23.445Z,9.98
2019-05-07T11:11:23.478Z,9.18
2019-05-07T11:12:23.401Z,8.58
2019-05-07T11:13:23.385Z,9.06
2019-05-07T11:14:23.459Z,8.97
2019-05-07T11:15:23.398Z,9.88
2019-05-07T11:16:23.381Z,10.68
2019-05-07T11:17:23.358Z,11.52
2019-05-07T11:18:23.360Z,13.17
2019-05-07T11:19:23.356Z,14.80
2019-05-07T11:20:23.332Z,15.84
2019-05-07T11:21:23.361Z,17.57
2019-05-07T11:22:23.324Z,18.80
2019-05-07T11:23:23.281Z,19.23
2019-05-07T11:24:23.278Z,20.56
2019-05-07T11:25:23.293Z,20.98
2019-05-07T11:26:23.269Z,21.48
2019-05-07T11:27:23.247Z,22.10
2019-05-07T11:28:23.237Z,22.00
2019-05-07T11:29:23.220Z,22.21
2019-05-07T11:30:23.256Z,23.03
2019-05-07T11:31:23.203Z,22.83
2019-05-07T11:32:23.227Z,22.75
2019-05-07T11:33:23.190Z,22.45
2019-05-07T11:34:23.170Z,23.07
2019-05-07T11:35:23.229Z,22.67
2019-05-07T11:36:23.165Z,23.27
2019-05-07T11:37:23.140Z,22.98
2019-05-07T11:38:24.978Z,23.08
2019-05-07T11:39:23.123Z,23.29
2019-05-07T11:40:23.125Z,23.09
2019-05-07T11:41:23.107Z,20.98
2019-05-07T11:42:23.075Z,18.35
2019-05-07T11:43:23.072Z,15.37
2019-05-07T11:44:23.125Z,14.65
2019-05-07T11:45:23.067Z,14.40
2019-05-07T11:46:23.045Z,15.63
2019-05-07T11:47:23.042Z,15.73
2019-05-07T11:48:23.030Z,13.87
2019-05-07T11:49:23.018Z,11.95
2019-05-07T11:50:23.014Z,11.72
2019-05-07T11:51:23.208Z,9.56
2019-05-07T11:52:23.023Z,10.05
2019-05-07T11:53:22.959Z,8.96
2019-05-07T11:54:22.964Z,7.98
2019-05-07T11:55:22.946Z,8.56
2019-05-07T11:56:22.956Z,9.26
2019-05-07T11:57:22.944Z,9.75
2019-05-07T11:58:22.929Z,10.83
2019-05-07T11:59:22.918Z,9.95
2019-05-07T12:00:22.891Z,10.47
2019-05-07T12:01:22.958Z,10.78
2019-05-07T12:02:22.902Z,11.47
2019-05-07T12:03:22.870Z,11.07
2019-05-07T12:04:22.849Z,10.75
2019-05-07T12:05:22.865Z,11.04
2019-05-07T12:06:22.840Z,9.75
2019-05-07T12:07:22.828Z,8.67
2019-05-07T12:08:36.532Z,9.55
2019-05-07T12:09:23.808Z,9.35
2019-05-07T12:10:22.795Z,9.64
2019-05-07T12:11:22.785Z,10.96
2019-05-07T12:12:22.789Z,11.49
2019-05-07T12:13:22.754Z,12.92
2019-05-07T12:14:30.888Z,12.31
2019-05-07T12:15:23.735Z,13.62
2019-05-07T12:16:22.750Z,14.02
2019-05-07T12:17:22.731Z,12.90
2019-05-07T12:18:22.854Z,12.98
2019-05-07T12:19:22.755Z,13.07
2019-05-07T12:20:22.739Z,15.01
2019-05-07T12:21:24.197Z,16.55
2019-05-07T12:22:22.676Z,17.69
2019-05-07T12:23:22.774Z,18.92
2019-05-07T12:24:22.734Z,19.53
2019-05-07T12:25:22.648Z,19.04
2019-05-07T12:26:22.977Z,19.26
2019-05-07T12:27:23.061Z,19.15
2019-05-07T12:28:22.694Z,18.60
2019-05-07T12:29:22.586Z,17.25
2019-05-07T12:30:22.581Z,15.03
2019-05-07T12:31:22.576Z,14.10
2019-05-07T12:32:22.591Z,14.09
2019-05-07T12:33:22.584Z,14.48
2019-05-07T12:34:22.933Z,13.79
2019-05-07T12:35:22.529Z,13.10
2019-05-07T12:36:22.859Z,13.79
2019-05-07T12:37:22.601Z,13.73
2019-05-07T12:38:22.543Z,13.34
2019-05-07T12:39:22.498Z,14.46
2019-05-07T12:40:22.500Z,14.97
2019-05-07T12:41:22.471Z,16.60
2019-05-07T12:42:22.468Z,17.72
2019-05-07T12:43:22.454Z,18.24
2019-05-07T12:44:22.481Z,18.85
2019-05-07T12:45:22.928Z,18.83
2019-05-07T12:46:22.421Z,18.83
2019-05-07T12:47:22.600Z,18.10
2019-05-07T12:48:22.408Z,15.97
2019-05-07T12:49:22.406Z,15.92
2019-05-07T12:50:22.419Z,14.30
2019-05-07T12:51:33.541Z,13.98
2019-05-07T12:52:23.355Z,12.48
2019-05-07T12:53:22.485Z,13.35
2019-05-07T12:54:22.734Z,13.14